< < Back
Terminal Aerodrome Forecast


Current Version              Previous Versions:   1  2  3  4  5  6  7  8  9  

Terminal Aerodrome Forecast

462
FTUS44 KOHX 031929 AAA
TAFCSV
TAF AMD
KCSV 031929Z 0319/0418 32011KT P6SM SCT025 BKN060
     FM040000 30004KT P6SM BKN040
     FM041500 28010G18KT P6SM OVC040=



Latest METAR

019
SAUS70 KWBC 041300 RRF
MTRCSV
METAR KCSV 041253Z AUTO 27007KT 10SM CLR 11/07 A2985 RMK AO2 SLP099
T01060072


USA.gov is the U.S. government's official web portal to all federal, state and local government web resources and services.